createdAt,value
2019-05-18T00:00:15.017Z,17.60
2019-05-18T00:02:45.828Z,15.13
2019-05-18T00:05:17.348Z,14.90
2019-05-18T00:07:48.303Z,20.20
2019-05-18T00:10:19.215Z,18.17
2019-05-18T00:12:49.626Z,17.87
2019-05-18T00:15:19.940Z,14.57
2019-05-18T00:17:50.354Z,23.17
2019-05-18T00:20:20.666Z,14.93
2019-05-18T00:22:51.017Z,17.27
2019-05-18T00:25:21.409Z,17.97
2019-05-18T00:27:51.776Z,18.20
2019-05-18T00:30:22.633Z,16.33
2019-05-18T00:32:53.315Z,14.83
2019-05-18T00:35:23.663Z,14.33
2019-05-18T00:37:54.037Z,20.10
2019-05-18T00:40:24.402Z,16.23
2019-05-18T00:42:54.720Z,21.53
2019-05-18T00:45:25.077Z,18.60
2019-05-18T00:47:55.406Z,19.27
2019-05-18T00:50:25.790Z,20.17
2019-05-18T00:52:56.113Z,17.30
2019-05-18T00:55:26.514Z,15.63
2019-05-18T00:57:57.242Z,19.70
2019-05-18T01:00:27.587Z,20.20
2019-05-18T01:02:57.920Z,17.27
2019-05-18T01:05:28.278Z,17.90
2019-05-18T01:07:59.022Z,18.23
2019-05-18T01:10:29.772Z,18.47
2019-05-18T01:13:00.094Z,16.20
2019-05-18T01:15:30.507Z,19.57
2019-05-18T01:18:02.268Z,17.50
2019-05-18T01:20:32.958Z,17.33
2019-05-18T01:23:03.315Z,18.73
2019-05-18T01:25:33.694Z,18.87
2019-05-18T01:28:04.026Z,15.73
2019-05-18T01:30:34.347Z,18.83
2019-05-18T01:33:04.954Z,19.03
2019-05-18T01:35:35.603Z,15.13
2019-05-18T01:38:06.951Z,14.70
2019-05-18T01:40:37.535Z,18.47
2019-05-18T01:43:07.923Z,19.37
2019-05-18T01:45:38.304Z,19.90
2019-05-18T01:48:14.301Z,14.70
2019-05-18T01:50:41.733Z,15.27
2019-05-18T01:53:12.058Z,14.33
2019-05-18T01:55:42.780Z,12.60
2019-05-18T01:58:13.146Z,17.73
2019-05-18T02:00:44.680Z,19.40
2019-05-18T02:03:15.322Z,18.40
2019-05-18T02:05:45.955Z,14.80
2019-05-18T02:08:17.406Z,17.93
2019-05-18T02:10:47.869Z,15.47
2019-05-18T02:13:19.175Z,14.83
2019-05-18T02:15:49.593Z,17.27
2019-05-18T02:18:28.707Z,17.90
2019-05-18T02:20:51.963Z,17.70
2019-05-18T02:23:22.267Z,18.63
2019-05-18T02:25:53.371Z,17.37
2019-05-18T02:28:23.685Z,14.90
2019-05-18T02:30:54.056Z,16.30
2019-05-18T02:33:24.379Z,17.10
2019-05-18T02:35:54.730Z,17.03
2019-05-18T02:38:25.041Z,19.43
2019-05-18T02:40:55.424Z,16.73
2019-05-18T02:43:25.777Z,19.60
2019-05-18T02:45:56.182Z,15.03
2019-05-18T02:48:26.504Z,15.73
2019-05-18T02:50:56.885Z,20.60
2019-05-18T02:53:27.253Z,17.33
2019-05-18T02:55:57.575Z,19.13
2019-05-18T02:58:27.926Z,16.80
2019-05-18T03:00:58.263Z,15.60
2019-05-18T03:03:28.670Z,14.73
2019-05-18T03:05:58.967Z,13.47
2019-05-18T03:08:30.282Z,15.73
2019-05-18T03:11:01.140Z,19.07
2019-05-18T03:13:32.545Z,18.23
2019-05-18T03:16:02.946Z,18.47
2019-05-18T03:18:33.340Z,20.03
2019-05-18T03:21:03.621Z,15.77
2019-05-18T03:23:34.058Z,15.00
2019-05-18T03:26:04.470Z,18.40
2019-05-18T03:28:34.799Z,15.67
2019-05-18T03:31:05.184Z,18.50
2019-05-18T03:33:36.352Z,15.93
2019-05-18T03:36:06.687Z,14.90
2019-05-18T03:38:37.042Z,21.90
2019-05-18T03:41:07.362Z,18.73
2019-05-18T03:43:37.734Z,16.37
2019-05-18T03:46:08.068Z,13.23
2019-05-18T03:48:38.435Z,20.10
2019-05-18T03:51:08.776Z,17.17
2019-05-18T03:53:39.135Z,18.10
2019-05-18T03:56:09.456Z,16.47
2019-05-18T03:58:39.815Z,21.00
2019-05-18T04:01:10.145Z,17.47
2019-05-18T04:03:40.775Z,16.70
2019-05-18T04:06:11.101Z,14.83
2019-05-18T04:08:41.863Z,19.23
2019-05-18T04:11:12.185Z,15.17
2019-05-18T04:13:43.544Z,17.97
2019-05-18T04:16:14.239Z,17.37
2019-05-18T04:18:44.613Z,18.23
2019-05-18T04:21:15.600Z,17.30
2019-05-18T04:23:46.031Z,18.37
2019-05-18T04:26:16.919Z,16.73
2019-05-18T04:28:47.245Z,16.97
2019-05-18T04:31:17.613Z,18.50
2019-05-18T04:33:47.997Z,17.60
2019-05-18T04:36:18.385Z,18.00
2019-05-18T04:38:48.710Z,16.50
2019-05-18T04:41:19.075Z,19.00
2019-05-18T04:43:49.375Z,18.03
2019-05-18T04:46:20.230Z,19.77
2019-05-18T04:48:50.537Z,23.37
2019-05-18T04:51:20.891Z,23.57
2019-05-18T04:53:51.176Z,25.93
2019-05-18T04:56:21.555Z,24.17
2019-05-18T04:58:51.945Z,20.10
2019-05-18T05:01:22.275Z,18.87
2019-05-18T05:03:52.628Z,21.37
2019-05-18T05:06:22.957Z,19.37
2019-05-18T05:08:53.288Z,19.47
2019-05-18T05:11:23.636Z,16.50
2019-05-18T05:13:53.990Z,18.60
2019-05-18T05:16:24.308Z,17.53
2019-05-18T05:18:54.680Z,14.00
2019-05-18T05:21:25.011Z,12.30
2019-05-18T05:23:55.452Z,9.40
2019-05-18T05:26:25.770Z,5.73
2019-05-18T05:28:56.139Z,6.63
2019-05-18T05:31:26.456Z,4.97
2019-05-18T05:33:56.794Z,4.70
2019-05-18T05:36:27.118Z,5.13
2019-05-18T05:38:57.584Z,3.87
2019-05-18T05:41:27.910Z,4.57
2019-05-18T05:43:58.226Z,3.37
2019-05-18T05:46:29.050Z,3.40
2019-05-18T05:48:59.344Z,3.60
2019-05-18T05:51:29.693Z,3.23
2019-05-18T05:54:00.044Z,3.73
2019-05-18T05:56:30.486Z,3.20
2019-05-18T05:59:00.794Z,3.93
2019-05-18T06:01:31.138Z,4.70
2019-05-18T06:04:01.462Z,4.13
2019-05-18T06:06:31.846Z,5.17
2019-05-18T06:09:04.848Z,8.50
2019-05-18T06:11:35.583Z,6.10
2019-05-18T06:14:05.911Z,6.57
2019-05-18T06:16:36.250Z,5.07
2019-05-18T06:19:06.623Z,4.57
2019-05-18T06:21:36.920Z,3.70
2019-05-18T06:24:07.327Z,4.50
2019-05-18T06:26:37.853Z,5.80
2019-05-18T06:29:08.226Z,7.63
2019-05-18T06:31:38.540Z,4.97
2019-05-18T06:34:08.888Z,5.70
2019-05-18T06:36:39.192Z,5.23
2019-05-18T06:39:10.356Z,5.40
2019-05-18T06:41:40.680Z,6.03
2019-05-18T06:44:11.015Z,5.63
2019-05-18T06:46:41.392Z,7.60
2019-05-18T06:49:11.853Z,6.87
2019-05-18T06:51:43.387Z,9.13
2019-05-18T06:54:13.690Z,6.97
2019-05-18T06:56:44.249Z,5.97
2019-05-18T06:59:16.525Z,6.03
2019-05-18T07:01:47.951Z,7.60
2019-05-18T07:04:18.289Z,7.80
2019-05-18T07:06:48.634Z,10.80
2019-05-18T07:09:20.266Z,8.23
2019-05-18T07:11:50.575Z,9.00
2019-05-18T07:14:25.619Z,8.73
2019-05-18T07:16:52.860Z,6.90
2019-05-18T07:19:23.243Z,5.93
2019-05-18T07:21:53.565Z,5.17
2019-05-18T07:24:24.108Z,7.37
2019-05-18T07:26:54.511Z,9.43
2019-05-18T07:29:24.813Z,7.90
2019-05-18T07:31:55.173Z,9.07
2019-05-18T07:34:26.644Z,12.30
2019-05-18T07:36:57.428Z,11.70
2019-05-18T07:39:28.701Z,11.00
2019-05-18T07:41:59.038Z,15.77
2019-05-18T07:44:29.752Z,9.20
2019-05-18T07:47:00.128Z,8.83
2019-05-18T07:49:30.515Z,7.17
2019-05-18T07:52:01.120Z,15.30
2019-05-18T07:54:32.507Z,12.00
2019-05-18T07:57:03.919Z,14.30
2019-05-18T07:59:34.722Z,14.07
2019-05-18T08:02:05.056Z,11.83
2019-05-18T08:04:35.431Z,13.43
2019-05-18T08:07:05.832Z,12.90
2019-05-18T08:09:36.238Z,14.50
2019-05-18T08:12:06.599Z,18.80
2019-05-18T08:14:36.912Z,10.50
2019-05-18T08:17:07.320Z,11.63
2019-05-18T08:19:37.671Z,11.50
2019-05-18T08:22:08.010Z,13.03
2019-05-18T08:24:42.321Z,7.40
2019-05-18T08:27:12.664Z,7.43
2019-05-18T08:29:43.000Z,6.10
2019-05-18T08:32:13.312Z,5.60
2019-05-18T08:34:43.671Z,3.97
2019-05-18T08:37:14.026Z,10.23
2019-05-18T08:39:44.392Z,7.07
2019-05-18T08:42:14.784Z,7.80
2019-05-18T08:44:56.985Z,10.77
2019-05-18T08:47:27.352Z,8.20
2019-05-18T08:49:57.669Z,7.37
2019-05-18T08:52:28.034Z,7.63
2019-05-18T08:54:58.416Z,8.50
2019-05-18T08:57:29.748Z,8.40
2019-05-18T09:00:00.131Z,7.13
2019-05-18T09:02:30.474Z,8.23
2019-05-18T09:05:04.786Z,6.67
2019-05-18T09:07:33.941Z,11.13
2019-05-18T09:10:05.260Z,10.40
2019-05-18T09:12:35.566Z,11.17
2019-05-18T09:15:06.810Z,13.07
2019-05-18T09:17:37.136Z,10.53
2019-05-18T09:20:08.838Z,16.43
2019-05-18T09:22:39.540Z,15.70
2019-05-18T09:25:10.679Z,15.70
2019-05-18T09:27:40.992Z,14.90
2019-05-18T09:30:11.809Z,13.60
2019-05-18T09:32:42.091Z,13.07
2019-05-18T09:35:12.724Z,11.90
2019-05-18T09:37:43.055Z,14.10
2019-05-18T09:40:14.640Z,14.67
2019-05-18T09:42:44.940Z,11.53
2019-05-18T09:45:15.766Z,10.97
2019-05-18T09:47:46.139Z,13.00
2019-05-18T09:50:16.574Z,11.77
2019-05-18T09:52:46.912Z,10.47
2019-05-18T09:55:17.571Z,10.90
2019-05-18T09:57:47.868Z,10.13
2019-05-18T10:00:18.432Z,13.70
2019-05-18T10:02:48.756Z,9.17
2019-05-18T10:05:19.065Z,8.73
2019-05-18T10:07:50.386Z,10.60
2019-05-18T10:10:20.983Z,10.77
2019-05-18T10:12:51.381Z,9.33
2019-05-18T10:15:21.720Z,9.30
2019-05-18T10:17:52.016Z,9.70
2019-05-18T10:20:22.607Z,7.93
2019-05-18T10:23:04.131Z,8.93
2019-05-18T10:25:25.352Z,10.47
2019-05-18T10:27:56.702Z,9.60
2019-05-18T10:30:27.108Z,9.90
2019-05-18T10:32:57.434Z,12.30
2019-05-18T10:35:27.766Z,12.70
2019-05-18T10:37:58.548Z,13.23
2019-05-18T10:40:28.860Z,12.07
2019-05-18T10:42:59.238Z,10.93
2019-05-18T10:45:29.560Z,12.17
2019-05-18T10:47:59.973Z,12.93
2019-05-18T10:50:30.259Z,7.70
2019-05-18T10:53:00.582Z,11.17
2019-05-18T10:55:33.408Z,10.53
2019-05-18T10:58:05.674Z,10.87
2019-05-18T11:00:36.390Z,12.03
2019-05-18T11:03:07.266Z,11.17
2019-05-18T11:05:37.702Z,9.13
2019-05-18T11:08:09.954Z,10.80
2019-05-18T11:10:41.116Z,11.20
2019-05-18T11:13:11.506Z,12.03
2019-05-18T11:15:41.850Z,12.07
2019-05-18T11:18:12.281Z,11.90
2019-05-18T11:20:42.667Z,11.30
2019-05-18T11:23:12.992Z,12.93
2019-05-18T11:25:43.444Z,10.80
2019-05-18T11:28:13.788Z,13.40
2019-05-18T11:30:44.646Z,10.43
2019-05-18T11:33:16.645Z,15.07
2019-05-18T11:35:47.006Z,13.50
2019-05-18T11:38:17.304Z,12.47
2019-05-18T11:40:50.195Z,13.20
2019-05-18T11:43:20.498Z,17.13
2019-05-18T11:45:50.842Z,13.53
2019-05-18T11:48:21.191Z,11.37
2019-05-18T11:50:51.538Z,14.60
2019-05-18T11:53:21.876Z,13.83
2019-05-18T11:55:52.563Z,15.17
2019-05-18T11:58:23.981Z,13.50
2019-05-18T12:00:54.324Z,12.60
2019-05-18T12:03:24.671Z,16.50
2019-05-18T12:05:55.015Z,14.03
2019-05-18T12:08:25.328Z,15.80
2019-05-18T12:10:57.143Z,13.03
2019-05-18T12:16:27.156Z,13.30
2019-05-18T12:18:57.895Z,14.30
2019-05-18T12:21:28.278Z,14.97
2019-05-18T12:24:13.754Z,15.03
2019-05-18T12:26:49.804Z,15.53
2019-05-18T12:29:20.136Z,14.97
2019-05-18T12:31:50.526Z,14.73
2019-05-18T12:34:20.851Z,15.10
2019-05-18T12:36:51.184Z,12.90
2019-05-18T12:39:21.588Z,14.97
2019-05-18T12:41:52.288Z,11.90
2019-05-18T12:44:24.093Z,14.60
2019-05-18T12:46:54.540Z,13.90
2019-05-18T12:49:24.856Z,16.17
2019-05-18T12:51:55.236Z,16.63
2019-05-18T12:54:30.874Z,14.60
2019-05-18T12:56:57.520Z,11.53
2019-05-18T12:59:27.896Z,18.20
2019-05-18T13:01:58.212Z,15.37
2019-05-18T13:04:28.544Z,15.70
2019-05-18T13:06:58.822Z,15.40
2019-05-18T13:09:29.602Z,14.23
2019-05-18T13:12:00.008Z,13.20
2019-05-18T13:14:30.423Z,15.77
2019-05-18T13:17:16.450Z,14.40
2019-05-18T13:19:46.798Z,13.63
2019-05-18T13:22:17.120Z,14.00
2019-05-18T13:24:47.485Z,15.33
2019-05-18T13:27:17.809Z,13.83
2019-05-18T13:29:48.234Z,12.50
2019-05-18T13:32:21.412Z,13.97
2019-05-18T13:34:51.788Z,13.00
2019-05-18T13:37:22.194Z,11.07
2019-05-18T13:39:52.508Z,12.43
2019-05-18T13:42:22.911Z,12.57
2019-05-18T13:44:53.244Z,11.10
2019-05-18T13:47:23.652Z,11.83
2019-05-18T13:49:54.352Z,11.33
2019-05-18T13:52:24.739Z,10.07
2019-05-18T13:55:03.647Z,10.70
2019-05-18T14:00:21.608Z,11.27
2019-05-18T14:02:52.375Z,12.53
2019-05-18T14:05:22.726Z,9.47
2019-05-18T14:07:53.042Z,9.23
2019-05-18T14:10:41.748Z,12.07
2019-05-18T14:13:12.704Z,9.80
2019-05-18T14:15:43.116Z,9.90
2019-05-18T14:18:13.850Z,10.40
2019-05-18T14:20:44.291Z,9.53
2019-05-18T14:23:14.666Z,9.37
2019-05-18T14:25:46.216Z,12.80
2019-05-18T14:28:16.690Z,11.20
2019-05-18T14:30:48.127Z,10.17
2019-05-18T14:33:18.459Z,13.73
2019-05-18T14:35:48.740Z,11.00
2019-05-18T14:38:19.084Z,11.43
2019-05-18T14:40:49.399Z,11.37
2019-05-18T14:43:19.771Z,10.70
2019-05-18T14:45:50.520Z,11.70
2019-05-18T14:48:20.874Z,9.60
2019-05-18T14:50:51.236Z,9.10
2019-05-18T14:53:21.629Z,10.90
2019-05-18T14:55:52.054Z,11.80
2019-05-18T14:58:22.343Z,11.80
2019-05-18T15:00:52.707Z,11.30
2019-05-18T15:03:23.082Z,11.73
2019-05-18T15:05:53.831Z,8.10
2019-05-18T15:08:24.221Z,11.03
2019-05-18T15:10:54.646Z,10.50
2019-05-18T15:13:36.828Z,11.60
2019-05-18T15:16:07.214Z,12.17
2019-05-18T15:18:37.558Z,8.30
2019-05-18T15:21:26.770Z,8.47
2019-05-18T15:23:57.414Z,10.37
2019-05-18T15:26:27.839Z,10.93
2019-05-18T15:28:58.554Z,11.30
2019-05-18T15:31:28.937Z,9.20
2019-05-18T15:33:59.287Z,11.13
2019-05-18T15:36:29.755Z,9.33
2019-05-18T15:39:00.362Z,8.67
2019-05-18T15:41:30.766Z,9.37
2019-05-18T15:46:54.607Z,9.47
2019-05-18T15:49:44.930Z,9.23
2019-05-18T15:52:15.316Z,9.07
2019-05-18T15:54:45.646Z,8.23
2019-05-18T15:57:16.025Z,8.70
2019-05-18T15:59:46.320Z,8.40
2019-05-18T16:02:16.728Z,6.40
2019-05-18T16:04:47.637Z,6.70
2019-05-18T16:07:18.332Z,7.87
2019-05-18T16:09:48.677Z,7.30
2019-05-18T16:12:18.980Z,6.73
2019-05-18T16:14:49.324Z,6.30
2019-05-18T16:17:19.641Z,6.73
2019-05-18T16:19:49.956Z,6.17
2019-05-18T16:22:20.353Z,6.07
2019-05-18T16:24:51.037Z,6.63
2019-05-18T16:27:21.867Z,6.60
2019-05-18T16:29:52.170Z,8.00
2019-05-18T16:32:22.511Z,7.37
2019-05-18T16:34:52.930Z,7.33
2019-05-18T16:37:23.293Z,6.80
2019-05-18T16:39:53.683Z,6.07
2019-05-18T16:42:24.144Z,6.80
2019-05-18T16:44:54.379Z,5.80
2019-05-18T16:47:24.722Z,8.37
2019-05-18T16:49:55.165Z,6.77
2019-05-18T16:52:25.506Z,9.00
2019-05-18T16:54:55.905Z,6.47
2019-05-18T16:57:26.240Z,8.40
2019-05-18T16:59:56.548Z,8.67
2019-05-18T17:02:31.598Z,7.17
2019-05-18T17:04:59.100Z,7.00
2019-05-18T17:07:29.503Z,7.43
2019-05-18T17:09:59.810Z,7.67
2019-05-18T17:12:30.176Z,8.90
2019-05-18T17:15:00.788Z,6.73
2019-05-18T17:17:31.139Z,9.33
2019-05-18T17:20:01.420Z,8.67
2019-05-18T17:22:33.348Z,7.53
2019-05-18T17:25:03.716Z,7.43
2019-05-18T17:27:34.260Z,7.00
2019-05-18T17:30:04.833Z,7.90
2019-05-18T17:32:35.207Z,8.90
2019-05-18T17:35:06.005Z,7.77
2019-05-18T17:37:36.366Z,7.40
2019-05-18T17:40:06.977Z,8.90
2019-05-18T17:42:37.353Z,8.93
2019-05-18T17:45:08.181Z,8.40
2019-05-18T17:47:38.565Z,10.00
2019-05-18T17:50:10.861Z,9.47
2019-05-18T17:52:41.266Z,10.10
2019-05-18T17:55:11.825Z,9.43
2019-05-18T17:58:01.190Z,10.20
2019-05-18T18:00:31.515Z,9.57
2019-05-18T18:03:01.852Z,11.00
2019-05-18T18:05:32.215Z,10.93
2019-05-18T18:08:02.624Z,10.60
2019-05-18T18:10:32.927Z,10.07
2019-05-18T18:13:03.339Z,9.50
2019-05-18T18:15:33.823Z,12.03
2019-05-18T18:18:04.566Z,7.87
2019-05-18T18:20:34.922Z,9.50
2019-05-18T18:23:05.312Z,11.30
2019-05-18T18:25:35.743Z,10.57
2019-05-18T18:28:06.043Z,11.57
2019-05-18T18:30:37.387Z,11.10
2019-05-18T18:33:07.707Z,12.20
2019-05-18T18:35:39.727Z,10.60
2019-05-18T18:38:10.285Z,9.93
2019-05-18T18:40:40.689Z,10.67
2019-05-18T18:43:11.006Z,10.27
2019-05-18T18:45:41.712Z,10.47
2019-05-18T18:48:12.038Z,10.30
2019-05-18T18:50:42.384Z,12.70
2019-05-18T18:53:12.692Z,10.50
2019-05-18T18:55:43.448Z,12.03
2019-05-18T18:58:13.756Z,12.70
2019-05-18T19:00:44.103Z,10.57
2019-05-18T19:03:14.406Z,11.13
2019-05-18T19:05:44.756Z,11.43
2019-05-18T19:08:15.064Z,12.20
2019-05-18T19:10:45.831Z,11.93
2019-05-18T19:13:16.130Z,12.40
2019-05-18T19:15:47.052Z,14.83
2019-05-18T19:18:17.446Z,11.17
2019-05-18T19:20:47.772Z,12.30
2019-05-18T19:23:18.065Z,13.50
2019-05-18T19:25:48.416Z,12.10
2019-05-18T19:28:18.720Z,11.63
2019-05-18T19:30:49.112Z,11.37
2019-05-18T19:33:19.466Z,11.30
2019-05-18T19:35:50.944Z,11.63
2019-05-18T19:38:21.226Z,13.03
2019-05-18T19:40:51.664Z,11.60
2019-05-18T19:43:21.979Z,12.27
2019-05-18T19:45:52.884Z,11.17
2019-05-18T19:48:23.192Z,13.00
2019-05-18T19:50:53.549Z,14.63
2019-05-18T19:53:23.962Z,9.97
2019-05-18T19:55:54.298Z,8.63
2019-05-18T19:58:24.657Z,10.90
2019-05-18T20:00:55.319Z,9.17
2019-05-18T20:03:28.659Z,11.87
2019-05-18T20:05:58.998Z,12.97
2019-05-18T20:08:29.374Z,11.10
2019-05-18T20:10:59.720Z,12.90
2019-05-18T20:13:30.392Z,13.93
2019-05-18T20:16:00.777Z,11.60
2019-05-18T20:18:32.504Z,12.17
2019-05-18T20:21:02.918Z,13.30
2019-05-18T20:23:33.293Z,9.80
2019-05-18T20:26:03.980Z,13.67
2019-05-18T20:28:34.383Z,12.10
2019-05-18T20:31:04.788Z,11.60
2019-05-18T20:33:35.226Z,11.20
2019-05-18T20:36:05.683Z,15.00
2019-05-18T20:38:36.136Z,12.63
2019-05-18T20:41:06.510Z,14.47
2019-05-18T20:43:39.058Z,14.67
2019-05-18T20:46:10.604Z,13.83
2019-05-18T20:48:42.010Z,11.20
2019-05-18T20:51:12.523Z,12.60
2019-05-18T20:53:42.855Z,13.43
2019-05-18T20:56:13.809Z,12.00
2019-05-18T20:58:45.358Z,11.17
2019-05-18T21:01:15.712Z,9.80
2019-05-18T21:03:46.130Z,8.83
2019-05-18T21:06:20.048Z,9.53
2019-05-18T21:08:50.435Z,8.50
2019-05-18T21:11:21.589Z,10.30
2019-05-18T21:13:51.929Z,10.03
2019-05-18T21:16:22.357Z,10.63
2019-05-18T21:18:55.214Z,10.40
2019-05-18T21:21:26.609Z,9.97
2019-05-18T21:23:57.671Z,8.97
2019-05-18T21:26:28.002Z,8.30
2019-05-18T21:29:00.645Z,7.20
2019-05-18T21:31:30.390Z,7.80
2019-05-18T21:34:00.745Z,11.40
2019-05-18T21:36:31.107Z,8.87
2019-05-18T21:39:01.462Z,9.43
2019-05-18T21:41:33.442Z,8.83
2019-05-18T21:44:03.815Z,10.00
2019-05-18T21:46:34.146Z,7.03
2019-05-18T21:49:05.662Z,7.40
2019-05-18T21:51:36.038Z,9.90
2019-05-18T21:54:06.472Z,10.53
2019-05-18T21:56:36.776Z,9.57
2019-05-18T21:59:11.575Z,8.83
2019-05-18T22:01:40.806Z,9.80
2019-05-18T22:04:11.188Z,9.80
2019-05-18T22:06:41.570Z,10.50
2019-05-18T22:09:12.030Z,10.67
2019-05-18T22:11:42.416Z,10.07
2019-05-18T22:14:12.748Z,10.10
2019-05-18T22:16:43.172Z,10.63
2019-05-18T22:19:14.910Z,11.43
2019-05-18T22:21:45.235Z,7.73
2019-05-18T22:24:15.542Z,11.70
2019-05-18T22:26:45.983Z,9.03
2019-05-18T22:29:16.338Z,8.20
2019-05-18T22:31:47.144Z,8.00
2019-05-18T22:34:17.460Z,10.90
2019-05-18T22:36:47.822Z,9.03
2019-05-18T22:39:18.501Z,9.50
2019-05-18T22:41:48.836Z,7.97
2019-05-18T22:44:19.204Z,8.37
2019-05-18T22:46:49.496Z,7.00
2019-05-18T22:49:20.329Z,7.20
2019-05-18T22:51:50.648Z,8.43
2019-05-18T22:54:22.073Z,9.37
2019-05-18T22:56:52.395Z,8.10
2019-05-18T22:59:22.744Z,8.50
2019-05-18T23:01:53.046Z,8.40
2019-05-18T23:04:23.442Z,5.00
2019-05-18T23:06:53.930Z,8.90
2019-05-18T23:09:24.319Z,7.60
2019-05-18T23:11:54.642Z,9.20
2019-05-18T23:14:25.038Z,8.30
2019-05-18T23:16:55.745Z,7.17
2019-05-18T23:19:26.105Z,7.20
2019-05-18T23:21:56.424Z,7.97
2019-05-18T23:24:26.805Z,8.60
2019-05-18T23:26:57.127Z,11.27
2019-05-18T23:29:27.483Z,11.13
2019-05-18T23:31:57.909Z,6.90
2019-05-18T23:34:28.256Z,8.00
2019-05-18T23:36:58.577Z,8.60
2019-05-18T23:39:28.971Z,7.37
2019-05-18T23:41:59.308Z,8.37
2019-05-18T23:44:29.661Z,8.50
2019-05-18T23:47:00.005Z,7.70
2019-05-18T23:49:30.360Z,9.30
2019-05-18T23:52:00.646Z,7.93
2019-05-18T23:54:31.496Z,7.70
2019-05-18T23:57:01.780Z,9.77
2019-05-18T23:59:32.180Z,8.07
